sensor_id;sensor_type;location;lat;lon;timestamp;P1;durP1;ratioP1;P2;durP2;ratioP2
77051;SDS011;65980;44.898;8.602;2024-01-06T00:01:10;10.40;;;6.75;;
77051;SDS011;65980;44.898;8.602;2024-01-06T00:04:17;10.23;;;7.10;;
77051;SDS011;65980;44.898;8.602;2024-01-06T00:07:22;9.52;;;6.70;;
77051;SDS011;65980;44.898;8.602;2024-01-06T00:10:26;9.35;;;6.70;;
77051;SDS011;65980;44.898;8.602;2024-01-06T00:13:32;9.93;;;6.65;;
77051;SDS011;65980;44.898;8.602;2024-01-06T00:16:36;12.57;;;6.40;;
77051;SDS011;65980;44.898;8.602;2024-01-06T00:19:40;8.57;;;6.15;;
77051;SDS011;65980;44.898;8.602;2024-01-06T00:22:44;10.52;;;6.57;;
77051;SDS011;65980;44.898;8.602;2024-01-06T00:25:49;10.52;;;6.38;;
77051;SDS011;65980;44.898;8.602;2024-01-06T00:28:53;8.45;;;6.30;;
77051;SDS011;65980;44.898;8.602;2024-01-06T00:31:58;8.32;;;6.20;;
77051;SDS011;65980;44.898;8.602;2024-01-06T00:35:02;9.65;;;6.40;;
77051;SDS011;65980;44.898;8.602;2024-01-06T00:38:07;10.70;;;7.07;;
77051;SDS011;65980;44.898;8.602;2024-01-06T00:41:11;9.82;;;6.22;;
77051;SDS011;65980;44.898;8.602;2024-01-06T00:44:16;10.70;;;6.70;;
77051;SDS011;65980;44.898;8.602;2024-01-06T00:47:21;9.60;;;6.93;;
77051;SDS011;65980;44.898;8.602;2024-01-06T00:50:27;10.23;;;6.90;;
77051;SDS011;65980;44.898;8.602;2024-01-06T00:53:31;8.57;;;6.55;;
77051;SDS011;65980;44.898;8.602;2024-01-06T00:56:35;9.23;;;6.90;;
77051;SDS011;65980;44.898;8.602;2024-01-06T00:59:39;9.90;;;7.25;;
77051;SDS011;65980;44.898;8.602;2024-01-06T01:02:43;9.32;;;6.57;;
77051;SDS011;65980;44.898;8.602;2024-01-06T01:05:48;9.65;;;6.63;;
77051;SDS011;65980;44.898;8.602;2024-01-06T01:08:53;8.60;;;6.68;;
77051;SDS011;65980;44.898;8.602;2024-01-06T01:11:58;10.85;;;7.32;;
77051;SDS011;65980;44.898;8.602;2024-01-06T01:15:02;10.00;;;7.55;;
77051;SDS011;65980;44.898;8.602;2024-01-06T01:18:08;9.70;;;7.35;;
77051;SDS011;65980;44.898;8.602;2024-01-06T01:21:12;10.05;;;7.43;;
77051;SDS011;65980;44.898;8.602;2024-01-06T01:24:17;10.35;;;7.82;;
77051;SDS011;65980;44.898;8.602;2024-01-06T01:27:22;10.77;;;7.47;;
77051;SDS011;65980;44.898;8.602;2024-01-06T01:30:27;10.05;;;7.20;;
77051;SDS011;65980;44.898;8.602;2024-01-06T01:33:31;9.27;;;6.82;;
77051;SDS011;65980;44.898;8.602;2024-01-06T01:36:35;10.13;;;6.97;;
77051;SDS011;65980;44.898;8.602;2024-01-06T01:39:39;9.65;;;6.88;;
77051;SDS011;65980;44.898;8.602;2024-01-06T01:42:43;10.88;;;7.43;;
77051;SDS011;65980;44.898;8.602;2024-01-06T01:45:48;11.57;;;8.15;;
77051;SDS011;65980;44.898;8.602;2024-01-06T01:48:56;11.52;;;8.32;;
77051;SDS011;65980;44.898;8.602;2024-01-06T01:52:01;9.82;;;7.35;;
77051;SDS011;65980;44.898;8.602;2024-01-06T01:55:06;9.88;;;6.50;;
77051;SDS011;65980;44.898;8.602;2024-01-06T01:58:12;13.23;;;8.65;;
77051;SDS011;65980;44.898;8.602;2024-01-06T02:01:17;11.07;;;8.15;;
77051;SDS011;65980;44.898;8.602;2024-01-06T02:04:22;13.13;;;8.70;;
77051;SDS011;65980;44.898;8.602;2024-01-06T02:07:26;11.63;;;7.97;;
77051;SDS011;65980;44.898;8.602;2024-01-06T02:10:34;10.80;;;7.75;;
77051;SDS011;65980;44.898;8.602;2024-01-06T02:13:38;12.57;;;8.80;;
77051;SDS011;65980;44.898;8.602;2024-01-06T02:16:43;11.07;;;7.85;;
77051;SDS011;65980;44.898;8.602;2024-01-06T02:19:47;14.65;;;9.07;;
77051;SDS011;65980;44.898;8.602;2024-01-06T02:22:51;10.98;;;7.97;;
77051;SDS011;65980;44.898;8.602;2024-01-06T02:25:55;11.60;;;7.60;;
77051;SDS011;65980;44.898;8.602;2024-01-06T02:29:00;12.82;;;8.52;;
77051;SDS011;65980;44.898;8.602;2024-01-06T02:32:05;12.27;;;8.48;;
77051;SDS011;65980;44.898;8.602;2024-01-06T02:35:09;15.98;;;8.52;;
77051;SDS011;65980;44.898;8.602;2024-01-06T02:38:13;11.13;;;8.35;;
77051;SDS011;65980;44.898;8.602;2024-01-06T02:41:17;12.10;;;8.55;;
77051;SDS011;65980;44.898;8.602;2024-01-06T02:44:21;13.75;;;9.00;;
77051;SDS011;65980;44.898;8.602;2024-01-06T02:47:25;11.80;;;8.27;;
77051;SDS011;65980;44.898;8.602;2024-01-06T02:50:29;11.55;;;7.95;;
77051;SDS011;65980;44.898;8.602;2024-01-06T02:53:33;13.77;;;8.77;;
77051;SDS011;65980;44.898;8.602;2024-01-06T02:56:37;12.75;;;8.38;;
77051;SDS011;65980;44.898;8.602;2024-01-06T02:59:42;11.85;;;7.95;;
77051;SDS011;65980;44.898;8.602;2024-01-06T03:02:46;12.70;;;8.38;;
77051;SDS011;65980;44.898;8.602;2024-01-06T03:05:50;12.25;;;8.70;;
77051;SDS011;65980;44.898;8.602;2024-01-06T03:08:54;13.55;;;8.68;;
77051;SDS011;65980;44.898;8.602;2024-01-06T03:11:58;12.55;;;8.55;;
77051;SDS011;65980;44.898;8.602;2024-01-06T03:15:02;13.25;;;8.43;;
77051;SDS011;65980;44.898;8.602;2024-01-06T03:18:07;11.68;;;8.20;;
77051;SDS011;65980;44.898;8.602;2024-01-06T03:21:18;14.15;;;9.05;;
77051;SDS011;65980;44.898;8.602;2024-01-06T03:24:23;11.23;;;7.45;;
77051;SDS011;65980;44.898;8.602;2024-01-06T03:27:29;11.98;;;7.93;;
77051;SDS011;65980;44.898;8.602;2024-01-06T03:30:33;14.68;;;9.20;;
77051;SDS011;65980;44.898;8.602;2024-01-06T03:33:37;12.65;;;8.65;;
77051;SDS011;65980;44.898;8.602;2024-01-06T03:36:41;14.05;;;8.27;;
77051;SDS011;65980;44.898;8.602;2024-01-06T03:39:45;14.07;;;8.50;;
77051;SDS011;65980;44.898;8.602;2024-01-06T03:42:49;12.82;;;8.65;;
77051;SDS011;65980;44.898;8.602;2024-01-06T03:45:53;12.98;;;8.15;;
77051;SDS011;65980;44.898;8.602;2024-01-06T03:48:59;13.40;;;9.05;;
77051;SDS011;65980;44.898;8.602;2024-01-06T03:52:03;15.52;;;9.50;;
77051;SDS011;65980;44.898;8.602;2024-01-06T03:55:08;14.38;;;8.88;;
77051;SDS011;65980;44.898;8.602;2024-01-06T03:58:13;14.18;;;9.75;;
77051;SDS011;65980;44.898;8.602;2024-01-06T04:01:17;13.20;;;8.57;;
77051;SDS011;65980;44.898;8.602;2024-01-06T04:04:22;14.55;;;9.57;;
77051;SDS011;65980;44.898;8.602;2024-01-06T04:07:26;15.13;;;8.85;;
77051;SDS011;65980;44.898;8.602;2024-01-06T04:10:30;13.85;;;8.48;;
77051;SDS011;65980;44.898;8.602;2024-01-06T04:13:34;14.20;;;8.30;;
77051;SDS011;65980;44.898;8.602;2024-01-06T04:16:38;13.75;;;9.05;;
77051;SDS011;65980;44.898;8.602;2024-01-06T04:19:42;13.48;;;8.57;;
77051;SDS011;65980;44.898;8.602;2024-01-06T04:22:46;14.40;;;9.02;;
77051;SDS011;65980;44.898;8.602;2024-01-06T04:25:51;12.55;;;8.38;;
77051;SDS011;65980;44.898;8.602;2024-01-06T04:28:55;13.50;;;8.55;;
77051;SDS011;65980;44.898;8.602;2024-01-06T04:31:59;16.38;;;9.20;;
77051;SDS011;65980;44.898;8.602;2024-01-06T04:35:03;14.60;;;9.30;;
77051;SDS011;65980;44.898;8.602;2024-01-06T04:38:07;13.23;;;8.63;;
77051;SDS011;65980;44.898;8.602;2024-01-06T04:41:11;13.38;;;8.32;;
77051;SDS011;65980;44.898;8.602;2024-01-06T04:44:15;13.98;;;9.07;;
77051;SDS011;65980;44.898;8.602;2024-01-06T04:47:20;13.18;;;8.13;;
77051;SDS011;65980;44.898;8.602;2024-01-06T04:50:24;13.65;;;8.60;;
77051;SDS011;65980;44.898;8.602;2024-01-06T04:53:27;13.95;;;9.00;;
77051;SDS011;65980;44.898;8.602;2024-01-06T04:56:32;14.05;;;9.23;;
77051;SDS011;65980;44.898;8.602;2024-01-06T04:59:37;14.10;;;8.73;;
77051;SDS011;65980;44.898;8.602;2024-01-06T05:02:41;11.43;;;7.93;;
77051;SDS011;65980;44.898;8.602;2024-01-06T05:05:46;12.48;;;8.73;;
77051;SDS011;65980;44.898;8.602;2024-01-06T05:08:50;14.43;;;9.32;;
77051;SDS011;65980;44.898;8.602;2024-01-06T05:11:54;12.57;;;8.73;;
77051;SDS011;65980;44.898;8.602;2024-01-06T05:14:59;12.82;;;8.63;;
77051;SDS011;65980;44.898;8.602;2024-01-06T05:18:04;12.38;;;8.98;;
77051;SDS011;65980;44.898;8.602;2024-01-06T05:21:09;15.40;;;9.52;;
77051;SDS011;65980;44.898;8.602;2024-01-06T05:24:16;14.23;;;8.82;;
77051;SDS011;65980;44.898;8.602;2024-01-06T05:27:21;13.80;;;9.30;;
77051;SDS011;65980;44.898;8.602;2024-01-06T05:30:25;14.45;;;9.55;;
77051;SDS011;65980;44.898;8.602;2024-01-06T05:33:29;14.00;;;9.45;;
77051;SDS011;65980;44.898;8.602;2024-01-06T05:36:33;15.35;;;9.68;;
77051;SDS011;65980;44.898;8.602;2024-01-06T05:39:38;13.95;;;9.25;;
77051;SDS011;65980;44.898;8.602;2024-01-06T05:42:44;14.30;;;9.23;;
77051;SDS011;65980;44.898;8.602;2024-01-06T05:45:50;15.32;;;9.55;;
77051;SDS011;65980;44.898;8.602;2024-01-06T05:48:54;15.73;;;10.20;;
77051;SDS011;65980;44.898;8.602;2024-01-06T05:52:00;17.40;;;10.00;;
77051;SDS011;65980;44.898;8.602;2024-01-06T05:55:04;15.13;;;9.48;;
77051;SDS011;65980;44.898;8.602;2024-01-06T05:58:09;14.43;;;9.52;;
77051;SDS011;65980;44.898;8.602;2024-01-06T06:07:20;15.70;;;9.50;;
77051;SDS011;65980;44.898;8.602;2024-01-06T06:10:25;15.10;;;10.02;;
77051;SDS011;65980;44.898;8.602;2024-01-06T06:13:44;15.82;;;9.65;;
77051;SDS011;65980;44.898;8.602;2024-01-06T06:16:48;15.00;;;10.27;;
77051;SDS011;65980;44.898;8.602;2024-01-06T06:19:52;14.75;;;9.88;;
77051;SDS011;65980;44.898;8.602;2024-01-06T06:22:56;15.23;;;10.02;;
77051;SDS011;65980;44.898;8.602;2024-01-06T06:26:04;15.32;;;10.80;;
77051;SDS011;65980;44.898;8.602;2024-01-06T06:29:12;14.05;;;9.85;;
77051;SDS011;65980;44.898;8.602;2024-01-06T06:32:17;13.65;;;9.63;;
77051;SDS011;65980;44.898;8.602;2024-01-06T06:35:22;15.30;;;10.20;;
77051;SDS011;65980;44.898;8.602;2024-01-06T06:38:27;18.55;;;9.98;;
77051;SDS011;65980;44.898;8.602;2024-01-06T06:41:31;14.30;;;9.95;;
77051;SDS011;65980;44.898;8.602;2024-01-06T06:44:35;14.95;;;10.27;;
77051;SDS011;65980;44.898;8.602;2024-01-06T06:47:39;17.38;;;10.32;;
77051;SDS011;65980;44.898;8.602;2024-01-06T06:50:44;18.15;;;10.80;;
77051;SDS011;65980;44.898;8.602;2024-01-06T06:53:49;13.82;;;9.77;;
77051;SDS011;65980;44.898;8.602;2024-01-06T06:56:54;14.57;;;10.02;;
77051;SDS011;65980;44.898;8.602;2024-01-06T06:59:59;14.10;;;9.57;;
77051;SDS011;65980;44.898;8.602;2024-01-06T07:03:05;13.27;;;9.07;;
77051;SDS011;65980;44.898;8.602;2024-01-06T07:06:13;13.23;;;9.00;;
77051;SDS011;65980;44.898;8.602;2024-01-06T07:09:18;12.68;;;8.80;;
77051;SDS011;65980;44.898;8.602;2024-01-06T07:12:22;15.20;;;9.05;;
77051;SDS011;65980;44.898;8.602;2024-01-06T07:18:57;14.90;;;10.10;;
77051;SDS011;65980;44.898;8.602;2024-01-06T07:22:03;14.82;;;9.48;;
77051;SDS011;65980;44.898;8.602;2024-01-06T07:25:09;16.35;;;10.05;;
77051;SDS011;65980;44.898;8.602;2024-01-06T07:28:14;14.88;;;9.82;;
77051;SDS011;65980;44.898;8.602;2024-01-06T07:34:22;15.45;;;9.40;;
77051;SDS011;65980;44.898;8.602;2024-01-06T07:37:26;13.48;;;9.40;;
77051;SDS011;65980;44.898;8.602;2024-01-06T07:40:31;14.73;;;9.50;;
77051;SDS011;65980;44.898;8.602;2024-01-06T07:43:35;14.35;;;10.02;;
77051;SDS011;65980;44.898;8.602;2024-01-06T07:46:40;15.38;;;9.80;;
77051;SDS011;65980;44.898;8.602;2024-01-06T07:49:43;15.07;;;9.63;;
77051;SDS011;65980;44.898;8.602;2024-01-06T07:52:48;14.85;;;9.63;;
77051;SDS011;65980;44.898;8.602;2024-01-06T07:55:53;13.68;;;8.93;;
77051;SDS011;65980;44.898;8.602;2024-01-06T07:58:57;15.98;;;8.93;;
77051;SDS011;65980;44.898;8.602;2024-01-06T08:02:05;13.18;;;8.95;;
77051;SDS011;65980;44.898;8.602;2024-01-06T08:05:09;12.40;;;7.90;;
77051;SDS011;65980;44.898;8.602;2024-01-06T08:08:14;12.02;;;7.80;;
77051;SDS011;65980;44.898;8.602;2024-01-06T08:11:20;11.98;;;7.80;;
77051;SDS011;65980;44.898;8.602;2024-01-06T08:14:25;10.70;;;7.32;;
77051;SDS011;65980;44.898;8.602;2024-01-06T08:17:30;10.18;;;7.28;;
77051;SDS011;65980;44.898;8.602;2024-01-06T08:20:34;14.40;;;8.95;;
77051;SDS011;65980;44.898;8.602;2024-01-06T08:23:39;12.18;;;8.05;;
77051;SDS011;65980;44.898;8.602;2024-01-06T08:26:43;13.15;;;7.57;;
77051;SDS011;65980;44.898;8.602;2024-01-06T08:29:47;10.77;;;6.63;;
77051;SDS011;65980;44.898;8.602;2024-01-06T08:32:51;11.88;;;7.72;;
77051;SDS011;65980;44.898;8.602;2024-01-06T08:35:55;9.40;;;6.65;;
77051;SDS011;65980;44.898;8.602;2024-01-06T08:38:59;10.75;;;6.88;;
77051;SDS011;65980;44.898;8.602;2024-01-06T08:42:03;11.45;;;7.18;;
77051;SDS011;65980;44.898;8.602;2024-01-06T08:45:08;9.50;;;6.90;;
77051;SDS011;65980;44.898;8.602;2024-01-06T08:48:12;13.68;;;7.65;;
77051;SDS011;65980;44.898;8.602;2024-01-06T08:51:18;10.02;;;6.45;;
77051;SDS011;65980;44.898;8.602;2024-01-06T08:54:23;9.65;;;6.22;;
77051;SDS011;65980;44.898;8.602;2024-01-06T08:57:28;8.98;;;6.20;;
77051;SDS011;65980;44.898;8.602;2024-01-06T09:00:32;9.68;;;6.40;;
77051;SDS011;65980;44.898;8.602;2024-01-06T09:03:36;8.73;;;6.18;;
77051;SDS011;65980;44.898;8.602;2024-01-06T09:06:41;8.48;;;6.10;;
77051;SDS011;65980;44.898;8.602;2024-01-06T09:09:51;11.50;;;6.00;;
77051;SDS011;65980;44.898;8.602;2024-01-06T09:12:55;8.00;;;5.80;;
77051;SDS011;65980;44.898;8.602;2024-01-06T09:15:59;13.55;;;8.30;;
77051;SDS011;65980;44.898;8.602;2024-01-06T09:19:04;12.57;;;7.97;;
77051;SDS011;65980;44.898;8.602;2024-01-06T09:22:08;15.30;;;8.00;;
77051;SDS011;65980;44.898;8.602;2024-01-06T09:25:13;12.20;;;7.30;;
77051;SDS011;65980;44.898;8.602;2024-01-06T09:28:18;13.13;;;7.28;;
77051;SDS011;65980;44.898;8.602;2024-01-06T09:31:24;10.32;;;7.03;;
77051;SDS011;65980;44.898;8.602;2024-01-06T09:34:28;10.00;;;7.03;;
77051;SDS011;65980;44.898;8.602;2024-01-06T09:37:32;10.63;;;7.13;;
77051;SDS011;65980;44.898;8.602;2024-01-06T09:40:40;12.73;;;7.63;;
77051;SDS011;65980;44.898;8.602;2024-01-06T09:43:50;12.60;;;7.38;;
77051;SDS011;65980;44.898;8.602;2024-01-06T09:46:55;10.52;;;7.13;;
77051;SDS011;65980;44.898;8.602;2024-01-06T09:50:04;9.27;;;6.70;;
77051;SDS011;65980;44.898;8.602;2024-01-06T09:53:12;10.60;;;6.75;;
77051;SDS011;65980;44.898;8.602;2024-01-06T09:56:19;10.18;;;6.90;;
77051;SDS011;65980;44.898;8.602;2024-01-06T09:59:23;8.73;;;6.25;;
77051;SDS011;65980;44.898;8.602;2024-01-06T10:02:27;9.40;;;6.68;;
77051;SDS011;65980;44.898;8.602;2024-01-06T10:05:31;9.73;;;6.45;;
77051;SDS011;65980;44.898;8.602;2024-01-06T10:08:36;8.07;;;6.03;;
77051;SDS011;65980;44.898;8.602;2024-01-06T10:11:44;10.30;;;6.88;;
77051;SDS011;65980;44.898;8.602;2024-01-06T10:14:48;20.55;;;10.50;;
77051;SDS011;65980;44.898;8.602;2024-01-06T10:17:53;10.68;;;6.90;;
77051;SDS011;65980;44.898;8.602;2024-01-06T10:21:05;9.65;;;6.60;;
77051;SDS011;65980;44.898;8.602;2024-01-06T10:24:11;11.30;;;6.90;;
77051;SDS011;65980;44.898;8.602;2024-01-06T10:27:16;9.23;;;6.22;;
77051;SDS011;65980;44.898;8.602;2024-01-06T10:30:21;8.93;;;5.95;;
77051;SDS011;65980;44.898;8.602;2024-01-06T10:33:25;6.60;;;5.25;;
77051;SDS011;65980;44.898;8.602;2024-01-06T10:36:29;8.52;;;5.82;;
77051;SDS011;65980;44.898;8.602;2024-01-06T10:39:34;8.85;;;6.00;;
77051;SDS011;65980;44.898;8.602;2024-01-06T10:42:39;7.05;;;5.25;;
77051;SDS011;65980;44.898;8.602;2024-01-06T10:45:45;7.80;;;5.20;;
77051;SDS011;65980;44.898;8.602;2024-01-06T10:48:51;10.52;;;6.05;;
77051;SDS011;65980;44.898;8.602;2024-01-06T10:51:59;8.95;;;6.60;;
77051;SDS011;65980;44.898;8.602;2024-01-06T10:55:04;8.23;;;5.68;;
77051;SDS011;65980;44.898;8.602;2024-01-06T10:58:10;7.15;;;4.75;;
77051;SDS011;65980;44.898;8.602;2024-01-06T11:01:20;9.43;;;5.10;;
77051;SDS011;65980;44.898;8.602;2024-01-06T11:04:26;7.60;;;5.00;;
77051;SDS011;65980;44.898;8.602;2024-01-06T11:07:30;6.32;;;4.68;;
77051;SDS011;65980;44.898;8.602;2024-01-06T11:10:36;8.05;;;4.88;;
77051;SDS011;65980;44.898;8.602;2024-01-06T11:13:41;7.18;;;5.03;;
77051;SDS011;65980;44.898;8.602;2024-01-06T11:16:49;6.38;;;4.78;;
77051;SDS011;65980;44.898;8.602;2024-01-06T11:19:55;7.70;;;4.50;;
77051;SDS011;65980;44.898;8.602;2024-01-06T11:23:19;6.25;;;4.40;;
77051;SDS011;65980;44.898;8.602;2024-01-06T11:26:24;6.97;;;4.80;;
77051;SDS011;65980;44.898;8.602;2024-01-06T11:29:30;9.70;;;5.05;;
77051;SDS011;65980;44.898;8.602;2024-01-06T11:32:36;7.55;;;4.90;;
77051;SDS011;65980;44.898;8.602;2024-01-06T11:35:45;6.47;;;4.28;;
77051;SDS011;65980;44.898;8.602;2024-01-06T11:38:53;7.07;;;4.82;;
77051;SDS011;65980;44.898;8.602;2024-01-06T11:41:58;6.63;;;4.68;;
77051;SDS011;65980;44.898;8.602;2024-01-06T11:45:04;6.32;;;4.68;;
77051;SDS011;65980;44.898;8.602;2024-01-06T11:48:11;6.05;;;3.95;;
77051;SDS011;65980;44.898;8.602;2024-01-06T11:51:16;5.28;;;3.97;;
77051;SDS011;65980;44.898;8.602;2024-01-06T11:54:22;6.07;;;4.38;;
77051;SDS011;65980;44.898;8.602;2024-01-06T11:57:27;6.10;;;4.50;;
77051;SDS011;65980;44.898;8.602;2024-01-06T12:00:32;5.75;;;4.40;;
77051;SDS011;65980;44.898;8.602;2024-01-06T12:03:40;5.63;;;4.43;;
77051;SDS011;65980;44.898;8.602;2024-01-06T12:06:44;7.85;;;4.40;;
77051;SDS011;65980;44.898;8.602;2024-01-06T12:09:50;5.60;;;4.13;;
77051;SDS011;65980;44.898;8.602;2024-01-06T12:13:04;5.40;;;4.28;;
77051;SDS011;65980;44.898;8.602;2024-01-06T12:16:12;5.97;;;4.20;;
77051;SDS011;65980;44.898;8.602;2024-01-06T12:19:17;6.97;;;4.53;;
77051;SDS011;65980;44.898;8.602;2024-01-06T12:22:21;6.53;;;4.57;;
77051;SDS011;65980;44.898;8.602;2024-01-06T12:25:26;6.20;;;4.20;;
77051;SDS011;65980;44.898;8.602;2024-01-06T12:28:35;6.45;;;4.40;;
77051;SDS011;65980;44.898;8.602;2024-01-06T12:31:39;7.15;;;4.50;;
77051;SDS011;65980;44.898;8.602;2024-01-06T12:34:44;9.75;;;5.50;;
77051;SDS011;65980;44.898;8.602;2024-01-06T12:37:51;6.90;;;4.45;;
77051;SDS011;65980;44.898;8.602;2024-01-06T12:40:55;8.93;;;5.47;;
77051;SDS011;65980;44.898;8.602;2024-01-06T12:44:01;5.50;;;3.90;;
77051;SDS011;65980;44.898;8.602;2024-01-06T12:47:06;7.93;;;4.20;;
77051;SDS011;65980;44.898;8.602;2024-01-06T12:50:11;6.97;;;4.45;;
77051;SDS011;65980;44.898;8.602;2024-01-06T12:53:15;5.63;;;4.20;;
77051;SDS011;65980;44.898;8.602;2024-01-06T12:56:21;7.00;;;4.82;;
77051;SDS011;65980;44.898;8.602;2024-01-06T12:59:25;7.45;;;4.80;;
77051;SDS011;65980;44.898;8.602;2024-01-06T13:02:29;7.32;;;4.80;;
77051;SDS011;65980;44.898;8.602;2024-01-06T13:05:33;7.47;;;4.95;;
77051;SDS011;65980;44.898;8.602;2024-01-06T13:08:39;7.13;;;4.90;;
77051;SDS011;65980;44.898;8.602;2024-01-06T13:11:44;5.47;;;4.47;;
77051;SDS011;65980;44.898;8.602;2024-01-06T13:14:50;6.43;;;4.55;;
77051;SDS011;65980;44.898;8.602;2024-01-06T13:17:55;7.95;;;5.22;;
77051;SDS011;65980;44.898;8.602;2024-01-06T13:21:00;7.45;;;4.82;;
77051;SDS011;65980;44.898;8.602;2024-01-06T13:24:06;6.13;;;4.93;;
77051;SDS011;65980;44.898;8.602;2024-01-06T13:27:12;7.10;;;4.65;;
77051;SDS011;65980;44.898;8.602;2024-01-06T13:30:16;6.47;;;5.00;;
77051;SDS011;65980;44.898;8.602;2024-01-06T13:33:21;7.68;;;4.88;;
77051;SDS011;65980;44.898;8.602;2024-01-06T13:36:27;6.78;;;4.50;;
77051;SDS011;65980;44.898;8.602;2024-01-06T13:39:31;6.47;;;4.82;;
77051;SDS011;65980;44.898;8.602;2024-01-06T13:42:36;7.05;;;5.00;;
77051;SDS011;65980;44.898;8.602;2024-01-06T13:45:42;7.85;;;5.18;;
77051;SDS011;65980;44.898;8.602;2024-01-06T13:48:48;8.35;;;5.50;;
77051;SDS011;65980;44.898;8.602;2024-01-06T13:51:52;6.47;;;4.97;;
77051;SDS011;65980;44.898;8.602;2024-01-06T13:54:57;9.77;;;5.20;;
77051;SDS011;65980;44.898;8.602;2024-01-06T13:58:02;8.68;;;4.80;;
77051;SDS011;65980;44.898;8.602;2024-01-06T14:01:08;9.70;;;4.80;;
77051;SDS011;65980;44.898;8.602;2024-01-06T14:04:14;6.47;;;4.70;;
77051;SDS011;65980;44.898;8.602;2024-01-06T14:07:19;14.07;;;7.55;;
77051;SDS011;65980;44.898;8.602;2024-01-06T14:10:25;6.65;;;4.78;;
77051;SDS011;65980;44.898;8.602;2024-01-06T14:13:30;6.88;;;4.60;;
77051;SDS011;65980;44.898;8.602;2024-01-06T14:16:36;6.32;;;4.82;;
77051;SDS011;65980;44.898;8.602;2024-01-06T14:19:42;5.93;;;4.00;;
77051;SDS011;65980;44.898;8.602;2024-01-06T14:22:46;6.30;;;4.10;;
77051;SDS011;65980;44.898;8.602;2024-01-06T14:25:51;5.78;;;4.13;;
77051;SDS011;65980;44.898;8.602;2024-01-06T14:28:55;6.93;;;3.97;;
77051;SDS011;65980;44.898;8.602;2024-01-06T14:31:59;5.05;;;3.95;;
77051;SDS011;65980;44.898;8.602;2024-01-06T14:35:05;8.10;;;4.65;;
77051;SDS011;65980;44.898;8.602;2024-01-06T14:38:10;10.23;;;5.30;;
77051;SDS011;65980;44.898;8.602;2024-01-06T14:41:18;7.88;;;5.07;;
77051;SDS011;65980;44.898;8.602;2024-01-06T14:44:26;8.38;;;5.53;;
77051;SDS011;65980;44.898;8.602;2024-01-06T14:47:32;7.20;;;4.88;;
77051;SDS011;65980;44.898;8.602;2024-01-06T14:50:39;7.97;;;3.92;;
77051;SDS011;65980;44.898;8.602;2024-01-06T14:56:52;6.35;;;3.60;;
77051;SDS011;65980;44.898;8.602;2024-01-06T14:59:57;5.38;;;3.63;;
77051;SDS011;65980;44.898;8.602;2024-01-06T15:03:03;5.75;;;4.30;;
77051;SDS011;65980;44.898;8.602;2024-01-06T15:06:09;6.80;;;4.78;;
77051;SDS011;65980;44.898;8.602;2024-01-06T15:09:13;6.10;;;4.63;;
77051;SDS011;65980;44.898;8.602;2024-01-06T15:12:18;6.63;;;4.75;;
77051;SDS011;65980;44.898;8.602;2024-01-06T15:15:25;8.15;;;5.38;;
77051;SDS011;65980;44.898;8.602;2024-01-06T15:18:30;6.53;;;4.35;;
77051;SDS011;65980;44.898;8.602;2024-01-06T15:21:34;5.60;;;3.55;;
77051;SDS011;65980;44.898;8.602;2024-01-06T15:24:41;6.25;;;4.30;;
77051;SDS011;65980;44.898;8.602;2024-01-06T15:27:48;6.82;;;4.20;;
77051;SDS011;65980;44.898;8.602;2024-01-06T15:30:52;4.57;;;3.72;;
77051;SDS011;65980;44.898;8.602;2024-01-06T15:33:58;5.90;;;4.00;;
77051;SDS011;65980;44.898;8.602;2024-01-06T15:37:03;5.93;;;4.07;;
77051;SDS011;65980;44.898;8.602;2024-01-06T15:40:08;6.50;;;4.47;;
77051;SDS011;65980;44.898;8.602;2024-01-06T15:43:13;7.45;;;4.45;;
77051;SDS011;65980;44.898;8.602;2024-01-06T15:52:25;6.95;;;5.00;;
77051;SDS011;65980;44.898;8.602;2024-01-06T15:55:29;10.55;;;5.30;;
77051;SDS011;65980;44.898;8.602;2024-01-06T16:01:37;9.07;;;5.00;;
77051;SDS011;65980;44.898;8.602;2024-01-06T16:04:41;9.82;;;6.25;;
77051;SDS011;65980;44.898;8.602;2024-01-06T16:07:45;8.55;;;5.90;;
77051;SDS011;65980;44.898;8.602;2024-01-06T16:13:53;8.57;;;5.40;;
77051;SDS011;65980;44.898;8.602;2024-01-06T16:16:57;7.03;;;4.78;;
77051;SDS011;65980;44.898;8.602;2024-01-06T16:20:03;7.50;;;5.38;;
77051;SDS011;65980;44.898;8.602;2024-01-06T16:23:10;8.38;;;5.80;;
77051;SDS011;65980;44.898;8.602;2024-01-06T16:26:20;11.70;;;6.97;;
77051;SDS011;65980;44.898;8.602;2024-01-06T16:29:25;23.38;;;10.43;;
77051;SDS011;65980;44.898;8.602;2024-01-06T16:32:30;19.05;;;9.73;;
77051;SDS011;65980;44.898;8.602;2024-01-06T16:35:34;9.25;;;6.05;;
77051;SDS011;65980;44.898;8.602;2024-01-06T16:38:39;10.18;;;6.32;;
77051;SDS011;65980;44.898;8.602;2024-01-06T16:41:43;10.02;;;5.57;;
77051;SDS011;65980;44.898;8.602;2024-01-06T16:44:48;9.00;;;5.32;;
77051;SDS011;65980;44.898;8.602;2024-01-06T16:47:52;9.93;;;5.72;;
77051;SDS011;65980;44.898;8.602;2024-01-06T16:50:56;7.25;;;4.85;;
77051;SDS011;65980;44.898;8.602;2024-01-06T16:54:01;9.93;;;4.88;;
77051;SDS011;65980;44.898;8.602;2024-01-06T16:57:06;8.30;;;4.97;;
77051;SDS011;65980;44.898;8.602;2024-01-06T17:00:10;7.80;;;5.28;;
77051;SDS011;65980;44.898;8.602;2024-01-06T17:03:15;7.85;;;5.75;;
77051;SDS011;65980;44.898;8.602;2024-01-06T17:06:19;8.63;;;5.30;;
77051;SDS011;65980;44.898;8.602;2024-01-06T17:09:23;7.85;;;5.25;;
77051;SDS011;65980;44.898;8.602;2024-01-06T17:12:27;11.18;;;5.75;;
77051;SDS011;65980;44.898;8.602;2024-01-06T17:15:31;10.35;;;6.15;;
77051;SDS011;65980;44.898;8.602;2024-01-06T17:18:35;9.80;;;5.88;;
77051;SDS011;65980;44.898;8.602;2024-01-06T17:21:39;9.73;;;6.45;;
77051;SDS011;65980;44.898;8.602;2024-01-06T17:24:44;11.30;;;6.97;;
77051;SDS011;65980;44.898;8.602;2024-01-06T17:27:48;10.35;;;5.93;;
77051;SDS011;65980;44.898;8.602;2024-01-06T17:30:52;12.57;;;8.38;;
77051;SDS011;65980;44.898;8.602;2024-01-06T17:33:57;13.27;;;7.63;;
77051;SDS011;65980;44.898;8.602;2024-01-06T17:37:01;15.25;;;8.55;;
77051;SDS011;65980;44.898;8.602;2024-01-06T17:40:06;13.07;;;8.35;;
77051;SDS011;65980;44.898;8.602;2024-01-06T17:43:11;10.05;;;7.13;;
77051;SDS011;65980;44.898;8.602;2024-01-06T17:46:17;11.98;;;7.90;;
77051;SDS011;65980;44.898;8.602;2024-01-06T17:49:22;19.05;;;9.90;;
77051;SDS011;65980;44.898;8.602;2024-01-06T17:52:27;14.10;;;9.30;;
77051;SDS011;65980;44.898;8.602;2024-01-06T17:55:32;14.77;;;9.30;;
77051;SDS011;65980;44.898;8.602;2024-01-06T17:58:36;13.23;;;8.32;;
77051;SDS011;65980;44.898;8.602;2024-01-06T18:01:42;14.32;;;8.30;;
77051;SDS011;65980;44.898;8.602;2024-01-06T18:04:46;13.95;;;8.88;;
77051;SDS011;65980;44.898;8.602;2024-01-06T18:07:51;19.73;;;9.80;;
77051;SDS011;65980;44.898;8.602;2024-01-06T18:10:55;15.27;;;9.82;;
77051;SDS011;65980;44.898;8.602;2024-01-06T18:13:59;13.68;;;8.75;;
77051;SDS011;65980;44.898;8.602;2024-01-06T18:17:03;14.82;;;8.90;;
77051;SDS011;65980;44.898;8.602;2024-01-06T18:20:09;13.60;;;9.00;;
77051;SDS011;65980;44.898;8.602;2024-01-06T18:23:14;13.30;;;8.98;;
77051;SDS011;65980;44.898;8.602;2024-01-06T18:26:18;13.65;;;9.05;;
77051;SDS011;65980;44.898;8.602;2024-01-06T18:35:31;13.10;;;9.60;;
77051;SDS011;65980;44.898;8.602;2024-01-06T18:38:35;15.95;;;9.88;;
77051;SDS011;65980;44.898;8.602;2024-01-06T18:41:40;15.88;;;10.15;;
77051;SDS011;65980;44.898;8.602;2024-01-06T18:44:44;18.80;;;9.88;;
77051;SDS011;65980;44.898;8.602;2024-01-06T18:47:49;14.80;;;10.35;;
77051;SDS011;65980;44.898;8.602;2024-01-06T18:50:53;18.35;;;11.73;;
77051;SDS011;65980;44.898;8.602;2024-01-06T18:53:57;21.45;;;13.15;;
77051;SDS011;65980;44.898;8.602;2024-01-06T18:57:01;20.45;;;12.90;;